createdAt,value
2018-07-03T00:01:40.925Z,0.00
2018-07-03T00:02:40.826Z,0.00
2018-07-03T00:04:33.703Z,0.00
2018-07-03T00:05:33.491Z,0.00
2018-07-03T00:07:26.224Z,0.00
2018-07-03T00:08:26.128Z,0.00
2018-07-03T00:10:19.119Z,0.00
2018-07-03T00:11:19.046Z,0.00
2018-07-03T00:13:11.912Z,0.00
2018-07-03T00:14:11.747Z,0.00
2018-07-03T00:16:04.603Z,0.00
2018-07-03T00:17:04.607Z,0.00
2018-07-03T00:18:57.228Z,0.00
2018-07-03T00:19:57.148Z,0.00
2018-07-03T00:21:49.984Z,0.00
2018-07-03T00:22:49.877Z,0.00
2018-07-03T00:24:42.720Z,0.00
2018-07-03T00:25:42.650Z,0.00
2018-07-03T00:27:36.069Z,0.00
2018-07-03T00:28:35.292Z,0.00
2018-07-03T00:30:28.029Z,0.00
2018-07-03T00:31:28.089Z,0.00
2018-07-03T00:33:20.674Z,0.00
2018-07-03T00:34:20.580Z,0.00
2018-07-03T00:36:13.458Z,0.00
2018-07-03T00:37:13.319Z,0.00
2018-07-03T00:39:06.568Z,0.00
2018-07-03T00:40:06.487Z,0.00
2018-07-03T00:41:59.332Z,0.00
2018-07-03T00:42:59.227Z,0.00
2018-07-03T00:44:51.965Z,0.00
2018-07-03T00:45:51.872Z,0.00
2018-07-03T00:47:44.632Z,0.00
2018-07-03T00:48:44.529Z,0.00
2018-07-03T00:50:37.775Z,0.00
2018-07-03T00:51:37.679Z,0.00
2018-07-03T00:53:30.551Z,0.00
2018-07-03T00:54:30.440Z,0.00
2018-07-03T00:56:23.173Z,0.00
2018-07-03T00:57:23.075Z,0.00
2018-07-03T00:59:15.845Z,0.00
2018-07-03T01:00:15.719Z,0.00
2018-07-03T01:02:08.584Z,0.00
2018-07-03T01:03:08.392Z,0.00
2018-07-03T01:05:01.133Z,0.00
2018-07-03T01:06:01.019Z,0.00
2018-07-03T01:07:53.926Z,0.00
2018-07-03T01:08:53.766Z,0.00
2018-07-03T01:10:46.631Z,0.00
2018-07-03T01:11:46.534Z,0.00
2018-07-03T01:13:39.382Z,0.00
2018-07-03T01:14:39.354Z,0.00
2018-07-03T01:16:32.063Z,0.00
2018-07-03T01:17:31.920Z,0.00
2018-07-03T01:19:24.762Z,0.00
2018-07-03T01:20:24.661Z,0.00
2018-07-03T01:22:17.551Z,0.00
2018-07-03T01:23:17.485Z,0.00
2018-07-03T01:25:11.323Z,0.00
2018-07-03T01:26:10.321Z,0.00
2018-07-03T01:28:03.005Z,0.00
2018-07-03T01:29:02.809Z,0.00
2018-07-03T01:30:55.592Z,0.00
2018-07-03T01:31:55.458Z,0.00
2018-07-03T01:33:48.297Z,0.00
2018-07-03T01:34:48.202Z,0.00
2018-07-03T01:36:40.966Z,0.00
2018-07-03T01:37:40.844Z,0.00
2018-07-03T01:39:33.714Z,0.00
2018-07-03T01:40:33.595Z,0.00
2018-07-03T01:42:26.363Z,0.00
2018-07-03T01:43:26.247Z,0.00
2018-07-03T01:45:19.004Z,0.00
2018-07-03T01:46:18.897Z,0.00
2018-07-03T01:48:11.686Z,0.00
2018-07-03T01:49:11.566Z,0.00
2018-07-03T01:51:04.414Z,0.00
2018-07-03T01:52:04.287Z,0.00
2018-07-03T01:53:57.030Z,0.00
2018-07-03T01:54:56.938Z,0.00
2018-07-03T01:56:50.296Z,0.00
2018-07-03T01:57:49.582Z,0.00
2018-07-03T01:59:42.427Z,0.00
2018-07-03T02:00:42.333Z,0.00
2018-07-03T02:02:35.216Z,0.00
2018-07-03T02:03:35.101Z,0.00
2018-07-03T02:05:27.850Z,0.00
2018-07-03T02:06:27.728Z,0.00
2018-07-03T02:08:20.502Z,0.00
2018-07-03T02:09:20.376Z,0.00
2018-07-03T02:11:13.156Z,0.00
2018-07-03T02:12:13.021Z,0.00
2018-07-03T02:14:05.804Z,0.00
2018-07-03T02:15:05.698Z,0.00
2018-07-03T02:16:58.538Z,0.00
2018-07-03T02:17:58.517Z,0.00
2018-07-03T02:19:52.708Z,0.00
2018-07-03T02:20:52.638Z,0.00
2018-07-03T02:22:45.480Z,0.00
2018-07-03T02:23:45.362Z,0.00
2018-07-03T02:25:38.722Z,0.00
2018-07-03T02:26:38.616Z,0.00
2018-07-03T02:28:31.483Z,4.00
2018-07-03T02:29:31.397Z,4.00
2018-07-03T02:31:24.284Z,0.00
2018-07-03T02:32:24.114Z,0.00
2018-07-03T02:34:16.884Z,4.00
2018-07-03T02:35:16.765Z,4.00
2018-07-03T02:37:09.511Z,4.00
2018-07-03T02:38:09.421Z,8.00
2018-07-03T02:40:02.170Z,8.00
2018-07-03T02:41:02.058Z,8.00
2018-07-03T02:42:55.408Z,8.00
2018-07-03T02:43:54.718Z,8.00
2018-07-03T02:45:47.565Z,12.00
2018-07-03T02:46:47.457Z,16.00
2018-07-03T02:48:40.202Z,16.00
2018-07-03T02:49:40.100Z,16.00
2018-07-03T02:51:32.871Z,24.00
2018-07-03T02:52:32.761Z,24.00
2018-07-03T02:54:26.139Z,32.00
2018-07-03T02:55:25.454Z,36.00
2018-07-03T02:57:18.261Z,44.00
2018-07-03T02:58:18.048Z,48.00
2018-07-03T03:00:10.810Z,52.00
2018-07-03T03:01:10.715Z,60.00
2018-07-03T03:03:03.569Z,72.00
2018-07-03T03:04:03.378Z,76.00
2018-07-03T03:05:56.225Z,88.00
2018-07-03T03:06:56.087Z,92.00
2018-07-03T03:08:49.573Z,108.00
2018-07-03T03:09:48.738Z,116.00
2018-07-03T03:11:41.596Z,132.00
2018-07-03T03:12:41.570Z,140.00
2018-07-03T03:14:34.482Z,160.00
2018-07-03T03:15:34.167Z,164.00
2018-07-03T03:17:26.891Z,184.00
2018-07-03T03:18:26.780Z,196.00
2018-07-03T03:20:20.552Z,216.00
2018-07-03T03:21:20.455Z,228.00
2018-07-03T03:23:13.307Z,248.00
2018-07-03T03:24:13.213Z,256.00
2018-07-03T03:26:06.501Z,276.00
2018-07-03T03:27:06.373Z,288.00
2018-07-03T03:28:59.153Z,308.00
2018-07-03T03:29:59.021Z,320.00
2018-07-03T03:31:52.396Z,344.00
2018-07-03T03:32:51.667Z,356.00
2018-07-03T03:34:44.399Z,372.00
2018-07-03T03:35:44.303Z,388.00
2018-07-03T03:37:37.059Z,408.00
2018-07-03T03:38:36.971Z,420.00
2018-07-03T03:40:29.716Z,440.00
2018-07-03T03:41:29.595Z,448.00
2018-07-03T03:43:22.356Z,472.00
2018-07-03T03:44:22.269Z,480.00
2018-07-03T03:46:15.102Z,500.00
2018-07-03T03:47:14.996Z,508.00
2018-07-03T03:49:07.816Z,528.00
2018-07-03T03:50:07.641Z,540.00
2018-07-03T03:52:03.896Z,556.00
2018-07-03T03:53:00.902Z,568.00
2018-07-03T03:54:54.191Z,584.00
2018-07-03T03:55:54.061Z,596.00
2018-07-03T03:57:47.342Z,612.00
2018-07-03T03:58:47.225Z,620.00
2018-07-03T04:00:40.476Z,640.00
2018-07-03T04:01:40.378Z,648.00
2018-07-03T04:03:33.259Z,664.00
2018-07-03T04:04:33.148Z,672.00
2018-07-03T04:06:26.396Z,688.00
2018-07-03T04:07:26.304Z,696.00
2018-07-03T04:09:19.070Z,708.00
2018-07-03T04:10:18.999Z,720.00
2018-07-03T04:12:12.226Z,732.00
2018-07-03T04:13:12.101Z,744.00
2018-07-03T04:15:05.392Z,752.00
2018-07-03T04:16:05.259Z,764.00
2018-07-03T04:18:01.090Z,776.00
2018-07-03T04:19:01.006Z,784.00
2018-07-03T04:20:54.277Z,796.00
2018-07-03T04:21:54.132Z,804.00
2018-07-03T04:23:47.452Z,816.00
2018-07-03T04:24:47.286Z,824.00
2018-07-03T04:26:40.614Z,836.00
2018-07-03T04:27:40.473Z,840.00
2018-07-03T04:29:33.741Z,856.00
2018-07-03T04:30:33.604Z,860.00
2018-07-03T04:32:26.915Z,872.00
2018-07-03T04:33:26.767Z,880.00
2018-07-03T04:35:20.186Z,896.00
2018-07-03T04:36:20.013Z,904.00
2018-07-03T04:38:13.204Z,924.00
2018-07-03T04:39:13.083Z,928.00
2018-07-03T04:41:06.387Z,944.00
2018-07-03T04:42:06.239Z,952.00
2018-07-03T04:43:59.663Z,976.00
2018-07-03T04:44:59.515Z,988.00
2018-07-03T04:46:52.847Z,1008.00
2018-07-03T04:47:52.686Z,1020.00
2018-07-03T04:49:46.098Z,1044.00
2018-07-03T04:50:45.975Z,1056.00
2018-07-03T04:52:38.709Z,1084.00
2018-07-03T04:53:38.617Z,1104.00
2018-07-03T04:55:31.846Z,1120.00
2018-07-03T04:56:31.789Z,1136.00
2018-07-03T04:58:24.488Z,1184.00
2018-07-03T04:59:24.406Z,1220.00
2018-07-03T05:01:17.253Z,1304.00
2018-07-03T05:02:17.123Z,1340.00
2018-07-03T05:04:10.385Z,1388.00
2018-07-03T05:05:10.289Z,1400.00
2018-07-03T05:07:03.052Z,1412.00
2018-07-03T05:08:02.937Z,1420.00
2018-07-03T05:09:56.207Z,1436.00
2018-07-03T05:10:56.104Z,1440.00
2018-07-03T05:12:48.970Z,1456.00
2018-07-03T05:13:48.841Z,1460.00
2018-07-03T05:15:42.201Z,1472.00
2018-07-03T05:16:42.040Z,1480.00
2018-07-03T05:18:35.289Z,1492.00
2018-07-03T05:19:35.187Z,1496.00
2018-07-03T05:21:28.442Z,1504.00
2018-07-03T05:22:28.347Z,1512.00
2018-07-03T05:24:21.114Z,1524.00
2018-07-03T05:25:20.970Z,1528.00
2018-07-03T05:27:13.839Z,1540.00
2018-07-03T05:28:13.801Z,1544.00
2018-07-03T05:30:06.461Z,1556.00
2018-07-03T05:31:06.398Z,1560.00
2018-07-03T05:32:59.143Z,1572.00
2018-07-03T05:33:59.022Z,1580.00
2018-07-03T05:35:52.297Z,1588.00
2018-07-03T05:36:52.172Z,1596.00
2018-07-03T05:38:45.026Z,1604.00
2018-07-03T05:39:44.921Z,1612.00
2018-07-03T05:41:37.715Z,1624.00
2018-07-03T05:42:37.588Z,1628.00
2018-07-03T05:44:30.433Z,1640.00
2018-07-03T05:45:30.338Z,1644.00
2018-07-03T05:47:23.200Z,1656.00
2018-07-03T05:48:23.073Z,1660.00
2018-07-03T05:50:15.949Z,1672.00
2018-07-03T05:51:15.720Z,1680.00
2018-07-03T05:53:09.002Z,1688.00
2018-07-03T05:54:08.874Z,1696.00
2018-07-03T05:56:01.735Z,1708.00
2018-07-03T05:57:01.636Z,1716.00
2018-07-03T05:58:54.724Z,1728.00
2018-07-03T05:59:54.377Z,1736.00
2018-07-03T06:01:47.653Z,1752.00
2018-07-03T06:02:47.537Z,1760.00
2018-07-03T06:04:40.379Z,1776.00
2018-07-03T06:05:40.284Z,1784.00
2018-07-03T06:07:33.163Z,1796.00
2018-07-03T06:08:33.037Z,1800.00
2018-07-03T06:10:25.914Z,1812.00
2018-07-03T06:11:25.804Z,1820.00
2018-07-03T06:13:19.079Z,1832.00
2018-07-03T06:14:18.977Z,1840.00
2018-07-03T06:16:12.216Z,1852.00
2018-07-03T06:17:12.116Z,1864.00
2018-07-03T06:19:05.394Z,1880.00
2018-07-03T06:20:05.280Z,1892.00
2018-07-03T06:21:58.068Z,1908.00
2018-07-03T06:22:57.910Z,1920.00
2018-07-03T06:24:50.679Z,1944.00
2018-07-03T06:25:50.574Z,1952.00
2018-07-03T06:27:43.853Z,1976.00
2018-07-03T06:28:43.750Z,1988.00
2018-07-03T06:30:37.601Z,2012.00
2018-07-03T06:31:37.021Z,2020.00
2018-07-03T06:33:29.770Z,2048.00
2018-07-03T06:34:29.646Z,2056.00
2018-07-03T06:36:23.951Z,2080.00
2018-07-03T06:37:23.913Z,2096.00
2018-07-03T06:39:18.196Z,2116.00
2018-07-03T06:40:18.090Z,2128.00
2018-07-03T06:42:10.966Z,2156.00
2018-07-03T06:43:10.841Z,2164.00
2018-07-03T06:45:04.186Z,2188.00
2018-07-03T06:46:04.008Z,2200.00
2018-07-03T06:47:56.852Z,2224.00
2018-07-03T06:48:56.657Z,2236.00
2018-07-03T06:50:49.984Z,2264.00
2018-07-03T06:51:49.822Z,2276.00
2018-07-03T06:53:43.084Z,2300.00
2018-07-03T06:54:42.975Z,2316.00
2018-07-03T06:56:36.318Z,2344.00
2018-07-03T06:57:36.137Z,2356.00
2018-07-03T06:59:28.986Z,2380.00
2018-07-03T07:00:28.879Z,2396.00
2018-07-03T07:02:22.186Z,2424.00
2018-07-03T07:03:22.046Z,2436.00
2018-07-03T07:05:15.327Z,2464.00
2018-07-03T07:06:15.210Z,2480.00
2018-07-03T07:08:09.558Z,2528.00
2018-07-03T07:09:09.488Z,2556.00
2018-07-03T07:11:02.646Z,2592.00
2018-07-03T07:12:02.625Z,2612.00
2018-07-03T07:13:55.404Z,2636.00
2018-07-03T07:14:55.325Z,2652.00
2018-07-03T07:16:48.171Z,2676.00
2018-07-03T07:17:48.034Z,2688.00
2018-07-03T07:19:41.292Z,2712.00
2018-07-03T07:20:41.204Z,2724.00
2018-07-03T07:22:34.497Z,2752.00
2018-07-03T07:23:34.368Z,2764.00
2018-07-03T07:25:27.732Z,2796.00
2018-07-03T07:26:27.617Z,2808.00
2018-07-03T07:28:20.539Z,2828.00
2018-07-03T07:29:20.414Z,2840.00
2018-07-03T07:31:14.660Z,2864.00
2018-07-03T07:32:14.564Z,2876.00
2018-07-03T07:34:07.408Z,2904.00
2018-07-03T07:35:07.296Z,2924.00
2018-07-03T07:37:00.184Z,2960.00
2018-07-03T07:38:00.054Z,2976.00
2018-07-03T07:39:53.303Z,3008.00
2018-07-03T07:40:53.212Z,3024.00
2018-07-03T07:42:47.086Z,3060.00
2018-07-03T07:43:46.885Z,3072.00
2018-07-03T07:45:39.729Z,3104.00
2018-07-03T07:46:39.648Z,3120.00
2018-07-03T07:48:32.511Z,3160.00
2018-07-03T07:49:32.408Z,3188.00
2018-07-03T07:51:25.235Z,3244.00
2018-07-03T07:52:25.127Z,3228.00
2018-07-03T07:54:17.966Z,3256.00
2018-07-03T07:55:17.876Z,3264.00
2018-07-03T07:57:10.781Z,3268.00
2018-07-03T07:58:10.630Z,3272.00
2018-07-03T08:00:03.989Z,3280.00
2018-07-03T08:01:03.923Z,3284.00
2018-07-03T08:02:56.762Z,3296.00
2018-07-03T08:03:56.639Z,3308.00
2018-07-03T08:05:49.497Z,3316.00
2018-07-03T08:06:49.434Z,3328.00
2018-07-03T08:08:42.241Z,3332.00
2018-07-03T08:09:42.155Z,3332.00
2018-07-03T08:11:34.998Z,3344.00
2018-07-03T08:12:34.883Z,3352.00
2018-07-03T08:14:27.776Z,3376.00
2018-07-03T08:15:27.680Z,3388.00
2018-07-03T08:17:20.529Z,3420.00
2018-07-03T08:18:20.390Z,3428.00
2018-07-03T08:20:13.226Z,3444.00
2018-07-03T08:21:13.141Z,3456.00
2018-07-03T08:23:06.004Z,3484.00
2018-07-03T08:24:05.915Z,3496.00
2018-07-03T08:25:58.772Z,3524.00
2018-07-03T08:26:58.673Z,3528.00
2018-07-03T08:28:51.528Z,3552.00
2018-07-03T08:29:51.387Z,3564.00
2018-07-03T08:31:44.251Z,3588.00
2018-07-03T08:32:44.145Z,3596.00
2018-07-03T08:34:37.012Z,3612.00
2018-07-03T08:35:36.883Z,3624.00
2018-07-03T08:37:29.731Z,3632.00
2018-07-03T08:38:29.658Z,3640.00
2018-07-03T08:40:22.539Z,3652.00
2018-07-03T08:41:22.381Z,3656.00
2018-07-03T08:43:15.262Z,3672.00
2018-07-03T08:44:15.147Z,3676.00
2018-07-03T08:46:07.976Z,3692.00
2018-07-03T08:47:07.926Z,3688.00
2018-07-03T08:49:00.767Z,3696.00
2018-07-03T08:50:00.671Z,3700.00
2018-07-03T08:51:53.500Z,3712.00
2018-07-03T08:52:53.411Z,3724.00
2018-07-03T08:54:46.283Z,3728.00
2018-07-03T08:55:46.165Z,3740.00
2018-07-03T08:57:39.007Z,3756.00
2018-07-03T08:58:39.077Z,3756.00
2018-07-03T09:00:31.744Z,3768.00
2018-07-03T09:01:31.650Z,3776.00
2018-07-03T09:03:24.497Z,3788.00
2018-07-03T09:04:24.415Z,3792.00
2018-07-03T09:06:17.238Z,3804.00
2018-07-03T09:07:17.150Z,3808.00
2018-07-03T09:09:09.983Z,3816.00
2018-07-03T09:10:09.892Z,3816.00
2018-07-03T09:12:02.890Z,3832.00
2018-07-03T09:13:02.740Z,3832.00
2018-07-03T09:14:55.593Z,3844.00
2018-07-03T09:15:55.525Z,3844.00
2018-07-03T09:17:48.357Z,3860.00
2018-07-03T09:18:48.266Z,3864.00
2018-07-03T09:20:41.110Z,3884.00
2018-07-03T09:21:41.001Z,3888.00
2018-07-03T09:23:33.905Z,3904.00
2018-07-03T09:24:33.754Z,3916.00
2018-07-03T09:26:26.601Z,3928.00
2018-07-03T09:27:26.495Z,3932.00
2018-07-03T09:29:19.353Z,3956.00
2018-07-03T09:30:19.279Z,3964.00
2018-07-03T09:32:12.099Z,3980.00
2018-07-03T09:33:12.001Z,3984.00
2018-07-03T09:35:04.822Z,3996.00
2018-07-03T09:36:04.732Z,4008.00
2018-07-03T09:37:57.588Z,4016.00
2018-07-03T09:38:57.482Z,4024.00
2018-07-03T09:40:50.346Z,4028.00
2018-07-03T09:41:50.287Z,4032.00
2018-07-03T09:43:43.125Z,4032.00
2018-07-03T09:44:42.980Z,4024.00
2018-07-03T09:46:36.425Z,4036.00
2018-07-03T09:47:36.255Z,4020.00
2018-07-03T09:49:29.244Z,4048.00
2018-07-03T09:50:29.126Z,4060.00
2018-07-03T09:52:22.016Z,4064.00
2018-07-03T09:53:21.849Z,4068.00
2018-07-03T09:55:14.722Z,4084.00
2018-07-03T09:56:14.609Z,4088.00
2018-07-03T09:58:07.449Z,4100.00
2018-07-03T09:59:07.361Z,4108.00
2018-07-03T10:01:00.229Z,4116.00
2018-07-03T10:02:00.102Z,4124.00
2018-07-03T10:03:52.931Z,4144.00
2018-07-03T10:04:52.857Z,4160.00
2018-07-03T10:06:45.754Z,4184.00
2018-07-03T10:07:45.602Z,4204.00
2018-07-03T10:09:38.453Z,4220.00
2018-07-03T10:10:38.346Z,4208.00
2018-07-03T10:12:31.189Z,4240.00
2018-07-03T10:13:31.094Z,4248.00
2018-07-03T10:15:23.970Z,4276.00
2018-07-03T10:16:23.866Z,4284.00
2018-07-03T10:18:16.681Z,4300.00
2018-07-03T10:19:16.592Z,4336.00
2018-07-03T10:21:09.446Z,4376.00
2018-07-03T10:22:09.351Z,4388.00
2018-07-03T10:24:02.192Z,4408.00
2018-07-03T10:25:02.107Z,4428.00
2018-07-03T10:26:54.936Z,4452.00
2018-07-03T10:27:54.850Z,4472.00
2018-07-03T10:29:47.685Z,4496.00
2018-07-03T10:30:47.593Z,4524.00
2018-07-03T10:32:40.453Z,4544.00
2018-07-03T10:33:40.338Z,4576.00
2018-07-03T10:35:33.180Z,4604.00
2018-07-03T10:36:33.097Z,4620.00
2018-07-03T10:38:25.952Z,4668.00
2018-07-03T10:39:25.862Z,4680.00
2018-07-03T10:41:18.683Z,4716.00
2018-07-03T10:42:18.659Z,4740.00
2018-07-03T10:44:11.456Z,4772.00
2018-07-03T10:45:11.342Z,4796.00
2018-07-03T10:47:04.206Z,4844.00
2018-07-03T10:48:04.115Z,4860.00
2018-07-03T10:49:56.920Z,4912.00
2018-07-03T10:50:56.858Z,4924.00
2018-07-03T10:52:50.217Z,4976.00
2018-07-03T10:53:50.103Z,5000.00
2018-07-03T10:55:42.976Z,5036.00
2018-07-03T10:56:42.860Z,5040.00
2018-07-03T10:58:35.706Z,5068.00
2018-07-03T10:59:35.644Z,5092.00
2018-07-03T11:01:28.469Z,5120.00
2018-07-03T11:02:28.395Z,5148.00
2018-07-03T11:04:21.187Z,5192.00
2018-07-03T11:05:21.097Z,5184.00
2018-07-03T11:07:13.971Z,5232.00
2018-07-03T11:08:13.858Z,5252.00
2018-07-03T11:10:06.679Z,5296.00
2018-07-03T11:11:06.609Z,5296.00
2018-07-03T11:12:59.482Z,5344.00
2018-07-03T11:13:59.435Z,5356.00
2018-07-03T11:15:52.203Z,5356.00
2018-07-03T11:16:52.130Z,5372.00
2018-07-03T11:18:44.968Z,5420.00
2018-07-03T11:19:44.927Z,5412.00
2018-07-03T11:21:37.738Z,5436.00
2018-07-03T11:22:37.599Z,5392.00
2018-07-03T11:24:30.469Z,5336.00
2018-07-03T11:25:30.367Z,5396.00
2018-07-03T11:27:23.200Z,5264.00
2018-07-03T11:28:23.109Z,5140.00
2018-07-03T11:30:16.476Z,5024.00
2018-07-03T11:31:16.355Z,5068.00
2018-07-03T11:33:09.322Z,5320.00
2018-07-03T11:34:09.121Z,5344.00
2018-07-03T11:36:01.961Z,5316.00
2018-07-03T11:37:01.858Z,5400.00
2018-07-03T11:38:54.718Z,5336.00
2018-07-03T11:39:54.635Z,5408.00
2018-07-03T11:41:47.998Z,5408.00
2018-07-03T11:42:47.871Z,5368.00
2018-07-03T11:44:40.759Z,5256.00
2018-07-03T11:45:40.628Z,5392.00
2018-07-03T11:47:33.476Z,5280.00
2018-07-03T11:48:33.374Z,5220.00
2018-07-03T11:50:26.225Z,5204.00
2018-07-03T11:51:26.119Z,4984.00
2018-07-03T11:53:18.973Z,5208.00
2018-07-03T11:54:18.879Z,5228.00
2018-07-03T11:56:11.714Z,5184.00
2018-07-03T11:57:11.628Z,5192.00
2018-07-03T11:59:04.462Z,5292.00
2018-07-03T12:00:04.384Z,5324.00
2018-07-03T12:01:57.216Z,5340.00
2018-07-03T12:02:57.125Z,5332.00
2018-07-03T12:04:49.963Z,5216.00
2018-07-03T12:05:49.868Z,5132.00
2018-07-03T12:07:42.694Z,5028.00
2018-07-03T12:08:42.612Z,4972.00
2018-07-03T12:10:35.497Z,4720.00
2018-07-03T12:11:35.371Z,4580.00
2018-07-03T12:13:28.217Z,4388.00
2018-07-03T12:14:28.131Z,4528.00
2018-07-03T12:16:20.981Z,4028.00
2018-07-03T12:17:20.869Z,4312.00
2018-07-03T12:19:13.768Z,4532.00
2018-07-03T12:20:13.619Z,4560.00
2018-07-03T12:22:06.465Z,4408.00
2018-07-03T12:23:06.364Z,4364.00
2018-07-03T12:24:59.245Z,4440.00
2018-07-03T12:25:59.174Z,4384.00
2018-07-03T12:27:51.963Z,4324.00
2018-07-03T12:28:51.896Z,4352.00
2018-07-03T12:30:44.724Z,4476.00
2018-07-03T12:31:44.617Z,4608.00
2018-07-03T12:33:37.442Z,5060.00
2018-07-03T12:34:37.368Z,5076.00
2018-07-03T12:36:30.208Z,5224.00
2018-07-03T12:37:30.110Z,5300.00
2018-07-03T12:39:22.953Z,5260.00
2018-07-03T12:40:22.879Z,5344.00
2018-07-03T12:42:15.731Z,5228.00
2018-07-03T12:43:15.624Z,5036.00
2018-07-03T12:45:08.441Z,4604.00
2018-07-03T12:46:08.364Z,4488.00
2018-07-03T12:48:01.834Z,4388.00
2018-07-03T12:49:01.728Z,4380.00
2018-07-03T12:50:54.646Z,4448.00
2018-07-03T12:51:54.491Z,4328.00
2018-07-03T12:53:47.347Z,4148.00
2018-07-03T12:54:47.308Z,4016.00
2018-07-03T12:56:40.082Z,3796.00
2018-07-03T12:57:39.973Z,3852.00
2018-07-03T12:59:32.807Z,3948.00
2018-07-03T13:00:32.728Z,4172.00
2018-07-03T13:02:25.585Z,4232.00
2018-07-03T13:03:25.475Z,3988.00
2018-07-03T13:05:18.312Z,4264.00
2018-07-03T13:06:18.238Z,4052.00
2018-07-03T13:08:11.105Z,4064.00
2018-07-03T13:09:10.988Z,4084.00
2018-07-03T13:11:03.805Z,3812.00
2018-07-03T13:12:03.729Z,3736.00
2018-07-03T13:13:56.598Z,3672.00
2018-07-03T13:14:56.480Z,3664.00
2018-07-03T13:16:49.872Z,3712.00
2018-07-03T13:17:49.224Z,3672.00
2018-07-03T13:19:42.576Z,3672.00
2018-07-03T13:20:42.493Z,3688.00
2018-07-03T13:22:35.335Z,3788.00
2018-07-03T13:23:35.228Z,3840.00
2018-07-03T13:25:28.067Z,3800.00
2018-07-03T13:26:27.987Z,3908.00
2018-07-03T13:28:20.845Z,4488.00
2018-07-03T13:29:20.737Z,4964.00
2018-07-03T13:31:13.607Z,5252.00
2018-07-03T13:32:14.002Z,5480.00
2018-07-03T13:34:06.345Z,5148.00
2018-07-03T13:35:06.229Z,5044.00
2018-07-03T13:36:59.117Z,4208.00
2018-07-03T13:37:59.004Z,4000.00
2018-07-03T13:39:52.340Z,4628.00
2018-07-03T13:40:51.737Z,3892.00
2018-07-03T13:42:44.661Z,3812.00
2018-07-03T13:43:44.499Z,3820.00
2018-07-03T13:45:37.870Z,4324.00
2018-07-03T13:46:37.764Z,4628.00
2018-07-03T13:48:30.628Z,4908.00
2018-07-03T13:49:30.500Z,4848.00
2018-07-03T13:51:23.367Z,3856.00
2018-07-03T13:52:23.259Z,3960.00
2018-07-03T13:54:16.113Z,3428.00
2018-07-03T13:55:15.984Z,3524.00
2018-07-03T13:57:08.835Z,3520.00
2018-07-03T13:58:08.736Z,3528.00
2018-07-03T14:00:01.584Z,3916.00
2018-07-03T14:01:01.490Z,3916.00
2018-07-03T14:02:54.350Z,3672.00
2018-07-03T14:03:54.236Z,3796.00
2018-07-03T14:05:47.108Z,3660.00
2018-07-03T14:06:46.991Z,3848.00
2018-07-03T14:08:39.853Z,3420.00
2018-07-03T14:09:39.754Z,3048.00
2018-07-03T14:11:32.604Z,3736.00
2018-07-03T14:12:32.499Z,3476.00
2018-07-03T14:14:25.900Z,4268.00
2018-07-03T14:15:25.765Z,4232.00
2018-07-03T14:17:18.582Z,4284.00
2018-07-03T14:18:18.532Z,4252.00
2018-07-03T14:20:11.357Z,4088.00
2018-07-03T14:21:11.279Z,4000.00
2018-07-03T14:23:04.115Z,4004.00
2018-07-03T14:24:04.004Z,3996.00
2018-07-03T14:25:56.864Z,4072.00
2018-07-03T14:26:56.752Z,3920.00
2018-07-03T14:28:49.616Z,3868.00
2018-07-03T14:29:49.509Z,4028.00
2018-07-03T14:31:42.366Z,3564.00
2018-07-03T14:32:42.275Z,3920.00
2018-07-03T14:34:35.216Z,4232.00
2018-07-03T14:35:35.130Z,4280.00
2018-07-03T14:37:27.836Z,4248.00
2018-07-03T14:38:27.740Z,4272.00
2018-07-03T14:40:21.142Z,4272.00
2018-07-03T14:41:21.079Z,4268.00
2018-07-03T14:43:13.855Z,4212.00
2018-07-03T14:44:13.965Z,4228.00
2018-07-03T14:46:07.136Z,4280.00
2018-07-03T14:47:07.047Z,4288.00
2018-07-03T14:48:59.854Z,4280.00
2018-07-03T14:49:59.798Z,4276.00
2018-07-03T14:51:52.655Z,4268.00
2018-07-03T14:52:52.552Z,4276.00
2018-07-03T14:54:45.350Z,4232.00
2018-07-03T14:55:45.272Z,4216.00
2018-07-03T14:57:38.623Z,4168.00
2018-07-03T14:58:38.539Z,4184.00
2018-07-03T15:00:31.874Z,4160.00
2018-07-03T15:01:31.801Z,4144.00
2018-07-03T15:03:24.644Z,4124.00
2018-07-03T15:04:24.544Z,4116.00
2018-07-03T15:06:17.916Z,4108.00
2018-07-03T15:07:17.829Z,4112.00
2018-07-03T15:09:10.667Z,4100.00
2018-07-03T15:10:10.552Z,4100.00
2018-07-03T15:12:03.418Z,4100.00
2018-07-03T15:13:03.295Z,4092.00
2018-07-03T15:14:56.193Z,4076.00
2018-07-03T15:15:56.123Z,4064.00
2018-07-03T15:17:48.895Z,4044.00
2018-07-03T15:18:48.793Z,4036.00
2018-07-03T15:20:41.643Z,4020.00
2018-07-03T15:21:41.552Z,4028.00
2018-07-03T15:23:34.397Z,4048.00
2018-07-03T15:24:34.308Z,4048.00
2018-07-03T15:26:27.200Z,3988.00
2018-07-03T15:27:27.041Z,4064.00
2018-07-03T15:29:19.917Z,4064.00
2018-07-03T15:30:19.803Z,4092.00
2018-07-03T15:32:12.637Z,4092.00
2018-07-03T15:33:12.603Z,4088.00
2018-07-03T15:35:05.554Z,4088.00
2018-07-03T15:36:05.305Z,4084.00
2018-07-03T15:37:58.154Z,4084.00
2018-07-03T15:38:58.140Z,4088.00
2018-07-03T15:40:50.906Z,4088.00
2018-07-03T15:41:50.809Z,4080.00
2018-07-03T15:43:43.640Z,4064.00
2018-07-03T15:44:43.564Z,4060.00
2018-07-03T15:46:37.325Z,4028.00
2018-07-03T15:47:36.895Z,4012.00
2018-07-03T15:49:29.791Z,3992.00
2018-07-03T15:50:29.666Z,3988.00
2018-07-03T15:52:22.520Z,3972.00
2018-07-03T15:53:22.389Z,3976.00
2018-07-03T15:55:15.267Z,3964.00
2018-07-03T15:56:15.173Z,3964.00
2018-07-03T15:58:08.023Z,3948.00
2018-07-03T15:59:07.934Z,3928.00
2018-07-03T16:01:00.816Z,3916.00
2018-07-03T16:02:00.807Z,3908.00
2018-07-03T16:03:54.035Z,3896.00
2018-07-03T16:04:53.934Z,3888.00
2018-07-03T16:06:46.779Z,3872.00
2018-07-03T16:07:46.689Z,3872.00
2018-07-03T16:09:39.543Z,3892.00
2018-07-03T16:10:39.425Z,3912.00
2018-07-03T16:12:33.699Z,3944.00
2018-07-03T16:13:32.675Z,3956.00
2018-07-03T16:15:26.053Z,3988.00
2018-07-03T16:16:25.477Z,4008.00
2018-07-03T16:18:18.262Z,4048.00
2018-07-03T16:19:18.181Z,4068.00
2018-07-03T16:21:11.035Z,4148.00
2018-07-03T16:22:10.934Z,4224.00
2018-07-03T16:24:03.786Z,4340.00
2018-07-03T16:25:03.829Z,4408.00
2018-07-03T16:26:57.946Z,4556.00
2018-07-03T16:27:57.858Z,4608.00
2018-07-03T16:29:50.715Z,4680.00
2018-07-03T16:30:50.607Z,4728.00
2018-07-03T16:32:44.568Z,4864.00
2018-07-03T16:33:44.490Z,4948.00
2018-07-03T16:35:37.334Z,5060.00
2018-07-03T16:36:37.247Z,5104.00
2018-07-03T16:38:30.069Z,5192.00
2018-07-03T16:39:29.998Z,5236.00
2018-07-03T16:41:23.422Z,5324.00
2018-07-03T16:42:22.748Z,5340.00
2018-07-03T16:44:15.590Z,5392.00
2018-07-03T16:45:15.486Z,5432.00
2018-07-03T16:47:08.455Z,5468.00
2018-07-03T16:48:08.385Z,5488.00
2018-07-03T16:50:01.208Z,5528.00
2018-07-03T16:51:01.156Z,5552.00
2018-07-03T16:52:53.916Z,5572.00
2018-07-03T16:53:53.863Z,5592.00
2018-07-03T16:55:46.716Z,5632.00
2018-07-03T16:56:46.624Z,5648.00
2018-07-03T16:58:39.456Z,5668.00
2018-07-03T16:59:39.480Z,5680.00
2018-07-03T17:01:32.206Z,5692.00
2018-07-03T17:02:32.090Z,5688.00
2018-07-03T17:04:24.928Z,5696.00
2018-07-03T17:05:24.852Z,5708.00
2018-07-03T17:07:17.688Z,5728.00
2018-07-03T17:08:17.627Z,5748.00
2018-07-03T17:10:10.454Z,5768.00
2018-07-03T17:11:10.521Z,5796.00
2018-07-03T17:13:03.191Z,5860.00
2018-07-03T17:14:03.084Z,5908.00
2018-07-03T17:15:55.988Z,5960.00
2018-07-03T17:16:55.854Z,5980.00
2018-07-03T17:18:48.685Z,6028.00
2018-07-03T17:19:48.592Z,6060.00
2018-07-03T17:21:41.936Z,6116.00
2018-07-03T17:22:42.079Z,6172.00
2018-07-03T17:24:34.695Z,6308.00
2018-07-03T17:25:34.601Z,6376.00
2018-07-03T17:27:27.438Z,6512.00
2018-07-03T17:28:27.427Z,6600.00
2018-07-03T17:30:20.224Z,6800.00
2018-07-03T17:31:20.104Z,6980.00
2018-07-03T17:33:12.943Z,13648.00
2018-07-03T17:34:12.851Z,40480.00
2018-07-03T17:36:05.693Z,82016.00
2018-07-03T17:37:05.605Z,82912.00
2018-07-03T17:38:58.433Z,83648.00
2018-07-03T17:39:58.379Z,83072.00
2018-07-03T17:41:51.306Z,80960.00
2018-07-03T17:42:51.208Z,79744.00
2018-07-03T17:44:44.061Z,77056.00